sensor_id;sensor_type;location;lat;lon;timestamp;P1;durP1;ratioP1;P2;durP2;ratioP2
5167;SDS011;2603;48.918;8.980;2022-12-07T00:01:40;11.63;;;7.00;;
5167;SDS011;2603;48.918;8.980;2022-12-07T00:04:08;11.87;;;7.40;;
5167;SDS011;2603;48.918;8.980;2022-12-07T00:06:38;11.80;;;7.20;;
5167;SDS011;2603;48.918;8.980;2022-12-07T00:09:07;11.97;;;8.33;;
5167;SDS011;2603;48.918;8.980;2022-12-07T00:11:36;12.33;;;7.67;;
5167;SDS011;2603;48.918;8.980;2022-12-07T00:14:06;11.57;;;7.00;;
5167;SDS011;2603;48.918;8.980;2022-12-07T00:16:41;14.13;;;8.50;;
5167;SDS011;2603;48.918;8.980;2022-12-07T00:19:08;14.37;;;8.80;;
5167;SDS011;2603;48.918;8.980;2022-12-07T00:21:36;12.30;;;8.10;;
5167;SDS011;2603;48.918;8.980;2022-12-07T00:24:03;11.80;;;7.20;;
5167;SDS011;2603;48.918;8.980;2022-12-07T00:26:31;13.37;;;8.80;;
5167;SDS011;2603;48.918;8.980;2022-12-07T00:29:02;10.77;;;6.63;;
5167;SDS011;2603;48.918;8.980;2022-12-07T00:31:31;10.33;;;6.47;;
5167;SDS011;2603;48.918;8.980;2022-12-07T00:34:01;13.90;;;7.77;;
5167;SDS011;2603;48.918;8.980;2022-12-07T00:36:28;14.63;;;7.30;;
5167;SDS011;2603;48.918;8.980;2022-12-07T00:38:55;10.20;;;6.20;;
5167;SDS011;2603;48.918;8.980;2022-12-07T00:41:24;18.30;;;7.80;;
5167;SDS011;2603;48.918;8.980;2022-12-07T00:43:52;19.60;;;8.20;;
5167;SDS011;2603;48.918;8.980;2022-12-07T00:46:19;10.97;;;7.07;;
5167;SDS011;2603;48.918;8.980;2022-12-07T00:48:46;12.07;;;7.37;;
5167;SDS011;2603;48.918;8.980;2022-12-07T00:51:15;12.77;;;8.40;;
5167;SDS011;2603;48.918;8.980;2022-12-07T00:53:43;12.53;;;7.60;;
5167;SDS011;2603;48.918;8.980;2022-12-07T00:56:11;13.80;;;7.97;;
5167;SDS011;2603;48.918;8.980;2022-12-07T00:58:39;13.10;;;8.53;;
5167;SDS011;2603;48.918;8.980;2022-12-07T01:01:07;13.37;;;8.30;;
5167;SDS011;2603;48.918;8.980;2022-12-07T01:03:36;12.83;;;7.70;;
5167;SDS011;2603;48.918;8.980;2022-12-07T01:06:03;12.77;;;7.77;;
5167;SDS011;2603;48.918;8.980;2022-12-07T01:08:31;19.00;;;7.97;;
5167;SDS011;2603;48.918;8.980;2022-12-07T01:11:00;11.33;;;7.50;;
5167;SDS011;2603;48.918;8.980;2022-12-07T01:13:28;14.63;;;8.87;;
5167;SDS011;2603;48.918;8.980;2022-12-07T01:15:57;20.33;;;8.43;;
5167;SDS011;2603;48.918;8.980;2022-12-07T01:18:25;13.97;;;7.77;;
5167;SDS011;2603;48.918;8.980;2022-12-07T01:20:58;16.67;;;8.20;;
5167;SDS011;2603;48.918;8.980;2022-12-07T01:23:26;13.97;;;8.70;;
5167;SDS011;2603;48.918;8.980;2022-12-07T01:25:57;12.27;;;7.13;;
5167;SDS011;2603;48.918;8.980;2022-12-07T01:28:24;13.17;;;7.80;;
5167;SDS011;2603;48.918;8.980;2022-12-07T01:30:57;15.83;;;7.70;;
5167;SDS011;2603;48.918;8.980;2022-12-07T01:33:26;12.30;;;7.97;;
5167;SDS011;2603;48.918;8.980;2022-12-07T01:35:54;12.20;;;7.57;;
5167;SDS011;2603;48.918;8.980;2022-12-07T01:38:20;11.30;;;7.27;;
5167;SDS011;2603;48.918;8.980;2022-12-07T01:40:53;13.00;;;7.47;;
5167;SDS011;2603;48.918;8.980;2022-12-07T01:43:21;11.97;;;8.20;;
5167;SDS011;2603;48.918;8.980;2022-12-07T01:45:50;11.40;;;6.80;;
5167;SDS011;2603;48.918;8.980;2022-12-07T01:48:17;13.80;;;7.90;;
5167;SDS011;2603;48.918;8.980;2022-12-07T01:50:46;14.60;;;8.30;;
5167;SDS011;2603;48.918;8.980;2022-12-07T01:53:14;11.60;;;7.70;;
5167;SDS011;2603;48.918;8.980;2022-12-07T01:55:42;16.37;;;8.47;;
5167;SDS011;2603;48.918;8.980;2022-12-07T01:58:10;14.00;;;8.17;;
5167;SDS011;2603;48.918;8.980;2022-12-07T02:00:39;11.30;;;7.20;;
5167;SDS011;2603;48.918;8.980;2022-12-07T02:03:08;19.60;;;8.27;;
5167;SDS011;2603;48.918;8.980;2022-12-07T02:05:37;13.27;;;7.10;;
5167;SDS011;2603;48.918;8.980;2022-12-07T02:08:04;11.97;;;7.63;;
5167;SDS011;2603;48.918;8.980;2022-12-07T02:10:31;11.13;;;7.13;;
5167;SDS011;2603;48.918;8.980;2022-12-07T02:12:58;12.10;;;7.83;;
5167;SDS011;2603;48.918;8.980;2022-12-07T02:15:29;11.37;;;7.37;;
5167;SDS011;2603;48.918;8.980;2022-12-07T02:18:05;16.60;;;8.47;;
5167;SDS011;2603;48.918;8.980;2022-12-07T02:20:36;12.27;;;8.10;;
5167;SDS011;2603;48.918;8.980;2022-12-07T02:23:20;15.30;;;8.47;;
5167;SDS011;2603;48.918;8.980;2022-12-07T02:26:22;11.80;;;7.87;;
5167;SDS011;2603;48.918;8.980;2022-12-07T02:28:58;12.00;;;7.67;;
5167;SDS011;2603;48.918;8.980;2022-12-07T02:31:33;15.50;;;8.23;;
5167;SDS011;2603;48.918;8.980;2022-12-07T02:34:03;12.47;;;7.10;;
5167;SDS011;2603;48.918;8.980;2022-12-07T02:36:34;12.47;;;8.03;;
5167;SDS011;2603;48.918;8.980;2022-12-07T02:39:06;18.00;;;6.70;;
5167;SDS011;2603;48.918;8.980;2022-12-07T02:41:36;12.37;;;7.27;;
5167;SDS011;2603;48.918;8.980;2022-12-07T02:44:07;15.23;;;8.70;;
5167;SDS011;2603;48.918;8.980;2022-12-07T02:46:36;12.20;;;8.17;;
5167;SDS011;2603;48.918;8.980;2022-12-07T02:49:04;14.47;;;8.07;;
5167;SDS011;2603;48.918;8.980;2022-12-07T02:51:31;19.10;;;8.30;;
5167;SDS011;2603;48.918;8.980;2022-12-07T02:53:59;15.07;;;8.33;;
5167;SDS011;2603;48.918;8.980;2022-12-07T02:56:26;18.23;;;10.73;;
5167;SDS011;2603;48.918;8.980;2022-12-07T02:59:01;14.30;;;8.77;;
5167;SDS011;2603;48.918;8.980;2022-12-07T03:01:35;13.87;;;8.83;;
5167;SDS011;2603;48.918;8.980;2022-12-07T03:04:11;12.73;;;8.80;;
5167;SDS011;2603;48.918;8.980;2022-12-07T03:06:47;16.93;;;11.50;;
5167;SDS011;2603;48.918;8.980;2022-12-07T03:09:19;21.37;;;9.87;;
5167;SDS011;2603;48.918;8.980;2022-12-07T03:11:47;11.83;;;8.00;;
5167;SDS011;2603;48.918;8.980;2022-12-07T03:14:17;20.63;;;9.70;;
5167;SDS011;2603;48.918;8.980;2022-12-07T03:16:49;13.37;;;8.40;;
5167;SDS011;2603;48.918;8.980;2022-12-07T03:19:19;14.87;;;8.77;;
5167;SDS011;2603;48.918;8.980;2022-12-07T03:21:47;18.67;;;9.77;;
5167;SDS011;2603;48.918;8.980;2022-12-07T03:24:17;17.93;;;9.87;;
5167;SDS011;2603;48.918;8.980;2022-12-07T03:26:46;15.90;;;9.27;;
5167;SDS011;2603;48.918;8.980;2022-12-07T03:29:16;17.40;;;8.20;;
5167;SDS011;2603;48.918;8.980;2022-12-07T03:31:45;15.77;;;9.10;;
5167;SDS011;2603;48.918;8.980;2022-12-07T03:34:18;18.53;;;9.10;;
5167;SDS011;2603;48.918;8.980;2022-12-07T03:36:48;14.47;;;8.90;;
5167;SDS011;2603;48.918;8.980;2022-12-07T03:39:17;14.37;;;8.23;;
5167;SDS011;2603;48.918;8.980;2022-12-07T03:41:47;12.07;;;8.10;;
5167;SDS011;2603;48.918;8.980;2022-12-07T03:44:14;15.60;;;10.00;;
5167;SDS011;2603;48.918;8.980;2022-12-07T03:46:42;14.47;;;9.10;;
5167;SDS011;2603;48.918;8.980;2022-12-07T03:49:13;11.97;;;8.37;;
5167;SDS011;2603;48.918;8.980;2022-12-07T03:51:45;17.27;;;8.80;;
5167;SDS011;2603;48.918;8.980;2022-12-07T03:54:15;16.53;;;9.17;;
5167;SDS011;2603;48.918;8.980;2022-12-07T03:56:44;13.60;;;7.93;;
5167;SDS011;2603;48.918;8.980;2022-12-07T03:59:12;16.83;;;9.07;;
5167;SDS011;2603;48.918;8.980;2022-12-07T04:01:41;14.77;;;9.50;;
5167;SDS011;2603;48.918;8.980;2022-12-07T04:04:07;17.13;;;10.10;;
5167;SDS011;2603;48.918;8.980;2022-12-07T04:06:35;20.47;;;9.30;;
5167;SDS011;2603;48.918;8.980;2022-12-07T04:09:02;17.43;;;9.10;;
5167;SDS011;2603;48.918;8.980;2022-12-07T04:11:29;25.10;;;9.80;;
5167;SDS011;2603;48.918;8.980;2022-12-07T04:13:55;15.40;;;9.53;;
5167;SDS011;2603;48.918;8.980;2022-12-07T04:16:39;14.10;;;7.73;;
5167;SDS011;2603;48.918;8.980;2022-12-07T04:19:06;15.40;;;8.77;;
5167;SDS011;2603;48.918;8.980;2022-12-07T04:21:32;14.43;;;8.30;;
5167;SDS011;2603;48.918;8.980;2022-12-07T04:24:00;14.53;;;7.67;;
5167;SDS011;2603;48.918;8.980;2022-12-07T04:26:27;13.10;;;7.83;;
5167;SDS011;2603;48.918;8.980;2022-12-07T04:28:54;13.47;;;7.50;;
5167;SDS011;2603;48.918;8.980;2022-12-07T04:31:20;11.80;;;7.67;;
5167;SDS011;2603;48.918;8.980;2022-12-07T04:33:47;12.17;;;7.47;;
5167;SDS011;2603;48.918;8.980;2022-12-07T04:36:13;12.77;;;7.83;;
5167;SDS011;2603;48.918;8.980;2022-12-07T04:38:40;14.17;;;7.30;;
5167;SDS011;2603;48.918;8.980;2022-12-07T04:41:08;17.17;;;8.20;;
5167;SDS011;2603;48.918;8.980;2022-12-07T04:43:35;14.23;;;8.57;;
5167;SDS011;2603;48.918;8.980;2022-12-07T04:46:05;16.17;;;8.20;;
5167;SDS011;2603;48.918;8.980;2022-12-07T04:48:38;13.70;;;9.00;;
5167;SDS011;2603;48.918;8.980;2022-12-07T04:51:04;13.47;;;7.60;;
5167;SDS011;2603;48.918;8.980;2022-12-07T04:53:31;15.73;;;9.93;;
5167;SDS011;2603;48.918;8.980;2022-12-07T04:55:58;15.43;;;9.10;;
5167;SDS011;2603;48.918;8.980;2022-12-07T04:58:27;16.03;;;8.27;;
5167;SDS011;2603;48.918;8.980;2022-12-07T05:00:54;16.63;;;8.80;;
5167;SDS011;2603;48.918;8.980;2022-12-07T05:03:21;24.60;;;10.57;;
5167;SDS011;2603;48.918;8.980;2022-12-07T05:05:47;15.60;;;8.93;;
5167;SDS011;2603;48.918;8.980;2022-12-07T05:08:14;15.60;;;9.50;;
5167;SDS011;2603;48.918;8.980;2022-12-07T05:10:40;18.13;;;9.40;;
5167;SDS011;2603;48.918;8.980;2022-12-07T05:13:07;19.90;;;10.53;;
5167;SDS011;2603;48.918;8.980;2022-12-07T05:15:34;20.20;;;11.03;;
5167;SDS011;2603;48.918;8.980;2022-12-07T05:18:01;18.00;;;9.90;;
5167;SDS011;2603;48.918;8.980;2022-12-07T05:20:28;18.10;;;10.30;;
5167;SDS011;2603;48.918;8.980;2022-12-07T05:22:55;20.70;;;11.27;;
5167;SDS011;2603;48.918;8.980;2022-12-07T05:25:23;16.97;;;9.43;;
5167;SDS011;2603;48.918;8.980;2022-12-07T05:27:50;17.97;;;9.80;;
5167;SDS011;2603;48.918;8.980;2022-12-07T05:30:17;22.40;;;10.07;;
5167;SDS011;2603;48.918;8.980;2022-12-07T05:32:44;13.83;;;8.83;;
5167;SDS011;2603;48.918;8.980;2022-12-07T05:35:11;13.90;;;8.50;;
5167;SDS011;2603;48.918;8.980;2022-12-07T05:37:37;16.80;;;9.47;;
5167;SDS011;2603;48.918;8.980;2022-12-07T05:40:05;15.77;;;8.43;;
5167;SDS011;2603;48.918;8.980;2022-12-07T05:42:32;17.53;;;10.20;;
5167;SDS011;2603;48.918;8.980;2022-12-07T05:44:59;15.13;;;8.67;;
5167;SDS011;2603;48.918;8.980;2022-12-07T05:47:25;15.77;;;9.73;;
5167;SDS011;2603;48.918;8.980;2022-12-07T05:49:53;14.00;;;8.70;;
5167;SDS011;2603;48.918;8.980;2022-12-07T05:52:19;12.37;;;7.60;;
5167;SDS011;2603;48.918;8.980;2022-12-07T05:54:46;39.23;;;13.97;;
5167;SDS011;2603;48.918;8.980;2022-12-07T05:57:13;49.83;;;15.63;;
5167;SDS011;2603;48.918;8.980;2022-12-07T05:59:39;38.63;;;13.57;;
5167;SDS011;2603;48.918;8.980;2022-12-07T06:02:05;17.67;;;8.80;;
5167;SDS011;2603;48.918;8.980;2022-12-07T06:04:34;15.70;;;8.33;;
5167;SDS011;2603;48.918;8.980;2022-12-07T06:07:03;19.23;;;8.80;;
5167;SDS011;2603;48.918;8.980;2022-12-07T06:09:30;30.93;;;13.17;;
5167;SDS011;2603;48.918;8.980;2022-12-07T06:11:57;27.17;;;12.20;;
5167;SDS011;2603;48.918;8.980;2022-12-07T06:14:41;18.90;;;10.03;;
5167;SDS011;2603;48.918;8.980;2022-12-07T06:17:08;19.53;;;9.73;;
5167;SDS011;2603;48.918;8.980;2022-12-07T06:19:35;20.00;;;11.90;;
5167;SDS011;2603;48.918;8.980;2022-12-07T06:22:02;21.10;;;12.33;;
5167;SDS011;2603;48.918;8.980;2022-12-07T06:24:30;20.30;;;11.20;;
5167;SDS011;2603;48.918;8.980;2022-12-07T06:26:57;16.50;;;9.20;;
5167;SDS011;2603;48.918;8.980;2022-12-07T06:29:23;12.77;;;7.77;;
5167;SDS011;2603;48.918;8.980;2022-12-07T06:31:50;13.25;;;8.38;;
5167;SDS011;2603;48.918;8.980;2022-12-07T06:34:18;11.93;;;7.00;;
5167;SDS011;2603;48.918;8.980;2022-12-07T06:36:45;10.23;;;6.30;;
5167;SDS011;2603;48.918;8.980;2022-12-07T06:39:18;11.17;;;6.63;;
5167;SDS011;2603;48.918;8.980;2022-12-07T06:41:45;11.63;;;7.00;;
5167;SDS011;2603;48.918;8.980;2022-12-07T06:44:12;11.20;;;6.47;;
5167;SDS011;2603;48.918;8.980;2022-12-07T06:46:38;9.40;;;5.80;;
5167;SDS011;2603;48.918;8.980;2022-12-07T06:49:05;9.67;;;6.30;;
5167;SDS011;2603;48.918;8.980;2022-12-07T06:51:32;11.07;;;6.17;;
5167;SDS011;2603;48.918;8.980;2022-12-07T06:54:00;8.60;;;5.37;;
5167;SDS011;2603;48.918;8.980;2022-12-07T06:56:28;9.00;;;6.10;;
5167;SDS011;2603;48.918;8.980;2022-12-07T06:58:54;11.03;;;5.90;;
5167;SDS011;2603;48.918;8.980;2022-12-07T07:01:21;10.23;;;5.90;;
5167;SDS011;2603;48.918;8.980;2022-12-07T07:03:47;10.30;;;5.97;;
5167;SDS011;2603;48.918;8.980;2022-12-07T07:06:14;11.20;;;5.97;;
5167;SDS011;2603;48.918;8.980;2022-12-07T07:08:41;11.90;;;5.40;;
5167;SDS011;2603;48.918;8.980;2022-12-07T07:11:08;10.00;;;5.73;;
5167;SDS011;2603;48.918;8.980;2022-12-07T07:13:36;8.37;;;4.40;;
5167;SDS011;2603;48.918;8.980;2022-12-07T07:16:03;8.20;;;4.70;;
5167;SDS011;2603;48.918;8.980;2022-12-07T07:18:29;9.27;;;4.53;;
5167;SDS011;2603;48.918;8.980;2022-12-07T07:20:56;9.63;;;5.73;;
5167;SDS011;2603;48.918;8.980;2022-12-07T07:23:23;8.20;;;4.70;;
5167;SDS011;2603;48.918;8.980;2022-12-07T07:25:50;10.13;;;5.73;;
5167;SDS011;2603;48.918;8.980;2022-12-07T07:28:16;9.10;;;5.00;;
5167;SDS011;2603;48.918;8.980;2022-12-07T07:30:44;8.27;;;5.60;;
5167;SDS011;2603;48.918;8.980;2022-12-07T07:33:11;9.33;;;5.90;;
5167;SDS011;2603;48.918;8.980;2022-12-07T07:35:38;7.30;;;4.70;;
5167;SDS011;2603;48.918;8.980;2022-12-07T07:38:05;5.47;;;4.07;;
5167;SDS011;2603;48.918;8.980;2022-12-07T07:40:33;9.67;;;4.83;;
5167;SDS011;2603;48.918;8.980;2022-12-07T07:42:59;7.50;;;4.33;;
5167;SDS011;2603;48.918;8.980;2022-12-07T07:45:26;11.37;;;5.80;;
5167;SDS011;2603;48.918;8.980;2022-12-07T07:47:54;15.50;;;5.53;;
5167;SDS011;2603;48.918;8.980;2022-12-07T07:50:21;92.70;;;9.47;;
5167;SDS011;2603;48.918;8.980;2022-12-07T07:52:48;50.17;;;7.23;;
5167;SDS011;2603;48.918;8.980;2022-12-07T07:55:14;33.27;;;6.80;;
5167;SDS011;2603;48.918;8.980;2022-12-07T07:57:41;13.13;;;5.70;;
5167;SDS011;2603;48.918;8.980;2022-12-07T08:00:09;8.40;;;4.97;;
5167;SDS011;2603;48.918;8.980;2022-12-07T08:02:39;6.17;;;3.90;;
5167;SDS011;2603;48.918;8.980;2022-12-07T08:05:09;16.73;;;4.70;;
5167;SDS011;2603;48.918;8.980;2022-12-07T08:07:37;8.93;;;5.00;;
5167;SDS011;2603;48.918;8.980;2022-12-07T08:10:04;19.97;;;5.07;;
5167;SDS011;2603;48.918;8.980;2022-12-07T08:12:35;8.90;;;4.90;;
5167;SDS011;2603;48.918;8.980;2022-12-07T08:15:02;10.30;;;4.90;;
5167;SDS011;2603;48.918;8.980;2022-12-07T08:17:29;7.20;;;4.40;;
5167;SDS011;2603;48.918;8.980;2022-12-07T08:19:56;12.53;;;4.90;;
5167;SDS011;2603;48.918;8.980;2022-12-07T08:22:23;10.73;;;5.07;;
5167;SDS011;2603;48.918;8.980;2022-12-07T08:24:50;9.57;;;5.07;;
5167;SDS011;2603;48.918;8.980;2022-12-07T08:27:17;8.13;;;5.10;;
5167;SDS011;2603;48.918;8.980;2022-12-07T08:29:43;11.30;;;4.73;;
5167;SDS011;2603;48.918;8.980;2022-12-07T08:32:10;7.50;;;4.50;;
5167;SDS011;2603;48.918;8.980;2022-12-07T08:34:36;7.10;;;4.50;;
5167;SDS011;2603;48.918;8.980;2022-12-07T08:37:03;8.63;;;5.10;;
5167;SDS011;2603;48.918;8.980;2022-12-07T08:39:31;11.93;;;5.67;;
5167;SDS011;2603;48.918;8.980;2022-12-07T08:41:57;9.30;;;4.83;;
5167;SDS011;2603;48.918;8.980;2022-12-07T08:44:24;19.03;;;5.80;;
5167;SDS011;2603;48.918;8.980;2022-12-07T08:46:51;13.17;;;6.47;;
5167;SDS011;2603;48.918;8.980;2022-12-07T08:49:19;10.20;;;5.93;;
5167;SDS011;2603;48.918;8.980;2022-12-07T08:51:46;9.43;;;4.87;;
5167;SDS011;2603;48.918;8.980;2022-12-07T08:54:14;7.43;;;4.23;;
5167;SDS011;2603;48.918;8.980;2022-12-07T08:56:43;6.07;;;3.90;;
5167;SDS011;2603;48.918;8.980;2022-12-07T08:59:10;7.57;;;4.40;;
5167;SDS011;2603;48.918;8.980;2022-12-07T09:01:39;7.70;;;4.10;;
5167;SDS011;2603;48.918;8.980;2022-12-07T09:04:05;8.30;;;4.27;;
5167;SDS011;2603;48.918;8.980;2022-12-07T09:06:32;8.13;;;3.70;;
5167;SDS011;2603;48.918;8.980;2022-12-07T09:08:59;9.07;;;3.87;;
5167;SDS011;2603;48.918;8.980;2022-12-07T09:11:26;9.90;;;4.50;;
5167;SDS011;2603;48.918;8.980;2022-12-07T09:13:54;8.20;;;4.70;;
5167;SDS011;2603;48.918;8.980;2022-12-07T09:16:21;10.47;;;5.33;;
5167;SDS011;2603;48.918;8.980;2022-12-07T09:18:47;8.13;;;4.40;;
5167;SDS011;2603;48.918;8.980;2022-12-07T09:21:17;11.17;;;4.40;;
5167;SDS011;2603;48.918;8.980;2022-12-07T09:23:43;6.90;;;4.50;;
5167;SDS011;2603;48.918;8.980;2022-12-07T09:26:10;9.30;;;5.07;;
5167;SDS011;2603;48.918;8.980;2022-12-07T09:28:37;12.60;;;4.53;;
5167;SDS011;2603;48.918;8.980;2022-12-07T09:31:05;8.03;;;5.30;;
5167;SDS011;2603;48.918;8.980;2022-12-07T09:33:31;10.13;;;4.60;;
5167;SDS011;2603;48.918;8.980;2022-12-07T09:35:58;10.53;;;4.90;;
5167;SDS011;2603;48.918;8.980;2022-12-07T09:38:25;7.60;;;4.50;;
5167;SDS011;2603;48.918;8.980;2022-12-07T09:40:51;7.17;;;3.00;;
5167;SDS011;2603;48.918;8.980;2022-12-07T09:43:19;7.67;;;3.80;;
5167;SDS011;2603;48.918;8.980;2022-12-07T09:45:47;8.03;;;4.27;;
5167;SDS011;2603;48.918;8.980;2022-12-07T09:48:17;9.03;;;4.13;;
5167;SDS011;2603;48.918;8.980;2022-12-07T09:50:46;7.60;;;3.57;;
5167;SDS011;2603;48.918;8.980;2022-12-07T09:53:14;8.83;;;4.10;;
5167;SDS011;2603;48.918;8.980;2022-12-07T09:55:41;7.10;;;3.70;;
5167;SDS011;2603;48.918;8.980;2022-12-07T09:58:10;7.60;;;3.80;;
5167;SDS011;2603;48.918;8.980;2022-12-07T10:00:43;7.73;;;4.20;;
5167;SDS011;2603;48.918;8.980;2022-12-07T10:03:10;9.43;;;4.23;;
5167;SDS011;2603;48.918;8.980;2022-12-07T10:05:40;9.23;;;4.17;;
5167;SDS011;2603;48.918;8.980;2022-12-07T10:08:09;8.20;;;4.23;;
5167;SDS011;2603;48.918;8.980;2022-12-07T10:10:37;5.63;;;3.50;;
5167;SDS011;2603;48.918;8.980;2022-12-07T10:13:05;6.53;;;3.60;;
5167;SDS011;2603;48.918;8.980;2022-12-07T10:15:44;8.37;;;4.37;;
5167;SDS011;2603;48.918;8.980;2022-12-07T10:18:20;6.53;;;3.67;;
5167;SDS011;2603;48.918;8.980;2022-12-07T10:21:00;5.90;;;3.73;;
5167;SDS011;2603;48.918;8.980;2022-12-07T10:23:29;12.23;;;3.80;;
5167;SDS011;2603;48.918;8.980;2022-12-07T10:25:55;5.67;;;3.87;;
5167;SDS011;2603;48.918;8.980;2022-12-07T10:28:22;9.40;;;4.30;;
5167;SDS011;2603;48.918;8.980;2022-12-07T10:30:50;7.73;;;4.70;;
5167;SDS011;2603;48.918;8.980;2022-12-07T10:33:29;6.77;;;3.87;;
5167;SDS011;2603;48.918;8.980;2022-12-07T10:35:57;8.37;;;4.20;;
5167;SDS011;2603;48.918;8.980;2022-12-07T10:38:27;10.90;;;5.00;;
5167;SDS011;2603;48.918;8.980;2022-12-07T10:41:04;9.33;;;4.00;;
5167;SDS011;2603;48.918;8.980;2022-12-07T10:43:32;6.00;;;4.00;;
5167;SDS011;2603;48.918;8.980;2022-12-07T10:49:02;4.73;;;3.47;;
5167;SDS011;2603;48.918;8.980;2022-12-07T10:51:37;14.10;;;4.60;;
5167;SDS011;2603;48.918;8.980;2022-12-07T10:54:12;8.83;;;4.73;;
5167;SDS011;2603;48.918;8.980;2022-12-07T10:56:48;7.90;;;4.80;;
5167;SDS011;2603;48.918;8.980;2022-12-07T10:59:31;8.60;;;5.50;;
5167;SDS011;2603;48.918;8.980;2022-12-07T11:02:09;11.03;;;4.87;;
5167;SDS011;2603;48.918;8.980;2022-12-07T11:04:49;13.03;;;5.10;;
5167;SDS011;2603;48.918;8.980;2022-12-07T11:07:27;8.90;;;5.77;;
5167;SDS011;2603;48.918;8.980;2022-12-07T11:10:07;12.30;;;5.30;;
5167;SDS011;2603;48.918;8.980;2022-12-07T11:15:28;9.80;;;5.50;;
5167;SDS011;2603;48.918;8.980;2022-12-07T11:18:01;14.00;;;5.10;;
5167;SDS011;2603;48.918;8.980;2022-12-07T11:20:37;12.47;;;6.50;;
5167;SDS011;2603;48.918;8.980;2022-12-07T11:23:11;10.20;;;5.10;;
5167;SDS011;2603;48.918;8.980;2022-12-07T11:25:46;10.77;;;5.60;;
5167;SDS011;2603;48.918;8.980;2022-12-07T11:28:19;10.60;;;5.97;;
5167;SDS011;2603;48.918;8.980;2022-12-07T11:30:53;12.30;;;7.40;;
5167;SDS011;2603;48.918;8.980;2022-12-07T11:33:26;11.13;;;6.53;;
5167;SDS011;2603;48.918;8.980;2022-12-07T11:35:57;12.43;;;6.87;;
5167;SDS011;2603;48.918;8.980;2022-12-07T11:38:32;11.07;;;6.50;;
5167;SDS011;2603;48.918;8.980;2022-12-07T11:41:03;10.50;;;6.63;;
5167;SDS011;2603;48.918;8.980;2022-12-07T11:43:41;11.23;;;6.80;;
5167;SDS011;2603;48.918;8.980;2022-12-07T11:46:18;14.27;;;6.93;;
5167;SDS011;2603;48.918;8.980;2022-12-07T11:48:50;10.30;;;6.33;;
5167;SDS011;2603;48.918;8.980;2022-12-07T11:51:21;8.40;;;5.60;;
5167;SDS011;2603;48.918;8.980;2022-12-07T11:53:49;13.97;;;7.23;;
5167;SDS011;2603;48.918;8.980;2022-12-07T11:56:21;14.63;;;6.67;;
5167;SDS011;2603;48.918;8.980;2022-12-07T11:58:49;11.37;;;6.00;;
5167;SDS011;2603;48.918;8.980;2022-12-07T12:01:37;10.70;;;6.30;;
5167;SDS011;2603;48.918;8.980;2022-12-07T12:04:14;10.03;;;6.00;;
5167;SDS011;2603;48.918;8.980;2022-12-07T12:06:59;14.00;;;7.17;;
5167;SDS011;2603;48.918;8.980;2022-12-07T12:09:26;17.20;;;5.87;;
5167;SDS011;2603;48.918;8.980;2022-12-07T12:14:48;12.03;;;7.17;;
5167;SDS011;2603;48.918;8.980;2022-12-07T12:17:26;11.77;;;6.47;;
5167;SDS011;2603;48.918;8.980;2022-12-07T12:20:04;16.17;;;7.60;;
5167;SDS011;2603;48.918;8.980;2022-12-07T12:22:40;11.63;;;7.00;;
5167;SDS011;2603;48.918;8.980;2022-12-07T12:25:19;15.43;;;7.20;;
5167;SDS011;2603;48.918;8.980;2022-12-07T12:27:49;13.00;;;7.10;;
5167;SDS011;2603;48.918;8.980;2022-12-07T12:30:30;12.03;;;6.90;;
5167;SDS011;2603;48.918;8.980;2022-12-07T12:33:03;14.47;;;7.67;;
5167;SDS011;2603;48.918;8.980;2022-12-07T12:35:32;11.83;;;7.03;;
5167;SDS011;2603;48.918;8.980;2022-12-07T12:40:51;11.90;;;7.83;;
5167;SDS011;2603;48.918;8.980;2022-12-07T12:55:16;14.17;;;8.50;;
5167;SDS011;2603;48.918;8.980;2022-12-07T13:03:59;15.20;;;8.07;;
5167;SDS011;2603;48.918;8.980;2022-12-07T13:06:33;14.60;;;7.87;;
5167;SDS011;2603;48.918;8.980;2022-12-07T13:09:03;14.33;;;8.90;;
5167;SDS011;2603;48.918;8.980;2022-12-07T13:11:31;14.07;;;7.40;;
5167;SDS011;2603;48.918;8.980;2022-12-07T13:17:09;13.37;;;8.47;;
5167;SDS011;2603;48.918;8.980;2022-12-07T13:25:11;14.53;;;7.83;;
5167;SDS011;2603;48.918;8.980;2022-12-07T13:27:39;18.20;;;9.60;;
5167;SDS011;2603;48.918;8.980;2022-12-07T13:30:09;13.13;;;7.47;;
5167;SDS011;2603;48.918;8.980;2022-12-07T13:32:41;16.43;;;8.23;;
5167;SDS011;2603;48.918;8.980;2022-12-07T13:37:57;17.53;;;7.20;;
5167;SDS011;2603;48.918;8.980;2022-12-07T13:40:23;17.20;;;8.43;;
5167;SDS011;2603;48.918;8.980;2022-12-07T13:42:56;15.53;;;7.67;;
5167;SDS011;2603;48.918;8.980;2022-12-07T13:45:24;15.53;;;8.60;;
5167;SDS011;2603;48.918;8.980;2022-12-07T13:48:15;20.03;;;8.03;;
5167;SDS011;2603;48.918;8.980;2022-12-07T13:50:47;18.77;;;10.00;;
5167;SDS011;2603;48.918;8.980;2022-12-07T13:53:18;16.20;;;7.50;;
5167;SDS011;2603;48.918;8.980;2022-12-07T13:55:45;17.83;;;8.97;;
5167;SDS011;2603;48.918;8.980;2022-12-07T13:58:12;16.53;;;8.00;;
5167;SDS011;2603;48.918;8.980;2022-12-07T14:00:39;13.70;;;8.00;;
5167;SDS011;2603;48.918;8.980;2022-12-07T14:03:23;20.53;;;9.53;;
5167;SDS011;2603;48.918;8.980;2022-12-07T14:06:03;15.53;;;8.70;;
5167;SDS011;2603;48.918;8.980;2022-12-07T14:08:31;15.27;;;8.37;;
5167;SDS011;2603;48.918;8.980;2022-12-07T14:10:58;19.30;;;8.33;;
5167;SDS011;2603;48.918;8.980;2022-12-07T14:13:27;12.17;;;7.23;;
5167;SDS011;2603;48.918;8.980;2022-12-07T14:15:56;17.17;;;8.23;;
5167;SDS011;2603;48.918;8.980;2022-12-07T14:18:28;13.17;;;7.40;;
5167;SDS011;2603;48.918;8.980;2022-12-07T14:21:03;17.57;;;8.07;;
5167;SDS011;2603;48.918;8.980;2022-12-07T14:23:30;18.47;;;9.00;;
5167;SDS011;2603;48.918;8.980;2022-12-07T14:26:04;15.70;;;8.00;;
5167;SDS011;2603;48.918;8.980;2022-12-07T14:28:33;15.97;;;8.70;;
5167;SDS011;2603;48.918;8.980;2022-12-07T14:31:00;18.10;;;9.63;;
5167;SDS011;2603;48.918;8.980;2022-12-07T14:33:28;19.50;;;9.87;;
5167;SDS011;2603;48.918;8.980;2022-12-07T14:35:55;18.57;;;9.70;;
5167;SDS011;2603;48.918;8.980;2022-12-07T14:38:23;19.83;;;8.80;;
5167;SDS011;2603;48.918;8.980;2022-12-07T14:40:50;22.83;;;10.90;;
5167;SDS011;2603;48.918;8.980;2022-12-07T14:43:18;16.40;;;9.60;;
5167;SDS011;2603;48.918;8.980;2022-12-07T14:45:45;21.43;;;11.00;;
5167;SDS011;2603;48.918;8.980;2022-12-07T14:48:12;20.60;;;11.07;;
5167;SDS011;2603;48.918;8.980;2022-12-07T14:50:42;21.13;;;10.67;;
5167;SDS011;2603;48.918;8.980;2022-12-07T14:53:11;21.13;;;12.23;;
5167;SDS011;2603;48.918;8.980;2022-12-07T14:55:39;18.97;;;10.60;;
5167;SDS011;2603;48.918;8.980;2022-12-07T14:58:06;22.60;;;11.07;;
5167;SDS011;2603;48.918;8.980;2022-12-07T15:00:34;20.03;;;9.50;;
5167;SDS011;2603;48.918;8.980;2022-12-07T15:03:00;19.93;;;10.93;;
5167;SDS011;2603;48.918;8.980;2022-12-07T15:05:27;20.90;;;10.00;;
5167;SDS011;2603;48.918;8.980;2022-12-07T15:07:55;17.40;;;11.07;;
5167;SDS011;2603;48.918;8.980;2022-12-07T15:10:22;24.47;;;10.77;;
5167;SDS011;2603;48.918;8.980;2022-12-07T15:12:55;20.87;;;10.40;;
5167;SDS011;2603;48.918;8.980;2022-12-07T15:15:41;21.90;;;11.57;;
5167;SDS011;2603;48.918;8.980;2022-12-07T15:18:08;16.77;;;10.20;;
5167;SDS011;2603;48.918;8.980;2022-12-07T15:20:34;20.03;;;10.83;;
5167;SDS011;2603;48.918;8.980;2022-12-07T15:23:02;18.80;;;10.87;;
5167;SDS011;2603;48.918;8.980;2022-12-07T15:25:29;31.20;;;11.20;;
5167;SDS011;2603;48.918;8.980;2022-12-07T15:27:55;22.00;;;11.27;;
5167;SDS011;2603;48.918;8.980;2022-12-07T15:30:22;18.30;;;9.60;;
5167;SDS011;2603;48.918;8.980;2022-12-07T15:32:48;18.40;;;10.13;;
5167;SDS011;2603;48.918;8.980;2022-12-07T15:35:15;17.60;;;9.40;;
5167;SDS011;2603;48.918;8.980;2022-12-07T15:37:42;19.13;;;10.20;;
5167;SDS011;2603;48.918;8.980;2022-12-07T15:40:10;19.33;;;9.90;;
5167;SDS011;2603;48.918;8.980;2022-12-07T15:42:37;16.73;;;9.17;;
5167;SDS011;2603;48.918;8.980;2022-12-07T15:45:04;19.90;;;9.80;;
5167;SDS011;2603;48.918;8.980;2022-12-07T15:47:31;26.73;;;11.67;;
5167;SDS011;2603;48.918;8.980;2022-12-07T15:49:59;19.03;;;10.77;;
5167;SDS011;2603;48.918;8.980;2022-12-07T15:52:26;21.60;;;10.50;;
5167;SDS011;2603;48.918;8.980;2022-12-07T15:54:53;23.73;;;11.23;;
5167;SDS011;2603;48.918;8.980;2022-12-07T15:57:21;19.47;;;10.70;;